Time;durP1;ratioP1;P1;durP2;ratioP2;P2;SDS_P1;SDS_P2;PMS_P1;PMS_P2;Temp;Humidity;BMP_temperature;BMP_pressure;BME280_temperature;BME280_humidity;BME280_pressure;Samples;Min_cycle;Max_cycle;Signal;HPM_P1;HPM_P2
2021/03/02 00:00:24;;;;;;;5.40;1.97;;;;;;;0.19;94.47;102983.06;5054602;28;20936;-68
2021/03/02 00:02:50;;;;;;;3.60;2.00;;;;;;;0.20;94.86;102982.06;5054784;28;20811;-68
2021/03/02 00:05:17;;;;;;;0.90;0.50;;;;;;;0.31;94.19;102980.84;5054499;28;20449;-68
2021/03/02 00:07:43;;;;;;;1.50;0.83;;;;;;;0.34;94.53;102983.16;5054302;28;21034;-67
2021/03/02 00:10:11;;;;;;;0.40;0.30;;;;;;;0.31;94.25;102976.38;5054731;28;20470;-68
2021/03/02 00:12:39;;;;;;;1.03;0.77;;;;;;;0.31;93.86;102988.84;5054228;28;20995;-68
2021/03/02 00:15:08;;;;;;;0.80;0.80;;;;;;;0.18;92.54;102986.75;5054635;28;20446;-68
2021/03/02 00:17:37;;;;;;;1.20;1.17;;;;;;;0.08;92.83;102978.94;5054530;28;20434;-68
2021/03/02 00:20:06;;;;;;;0.40;0.40;;;;;;;0.08;93.01;102978.94;5054491;28;20431;-68
2021/03/02 00:22:39;;;;;;;0.40;0.30;;;;;;;0.02;92.03;102976.97;5054112;28;20488;-68
2021/03/02 00:25:08;;;;;;;1.30;1.20;;;;;;;-0.03;92.61;102979.31;5054699;28;20793;-68
2021/03/02 00:27:35;;;;;;;5.40;1.53;;;;;;;-0.02;92.25;102980.97;5054367;28;20524;-69
2021/03/02 00:30:03;;;;;;;1.20;1.10;;;;;;;0.09;91.52;102979.75;5054032;28;20442;-68
2021/03/02 00:32:29;;;;;;;0.80;0.77;;;;;;;-0.03;91.45;102982.81;5053914;28;20474;-68
2021/03/02 00:34:54;;;;;;;5.17;0.87;;;;;;;-0.11;92.36;102987.31;5053963;28;20473;-68
2021/03/02 00:37:20;;;;;;;2.00;0.90;;;;;;;-0.08;92.12;102990.50;5053043;28;20488;-68
2021/03/02 00:39:47;;;;;;;1.87;1.20;;;;;;;-0.09;92.20;102994.16;5053936;28;20454;-68
2021/03/02 00:42:13;;;;;;;1.37;1.27;;;;;;;-0.02;91.68;102991.63;5054078;28;20466;-68
2021/03/02 00:44:39;;;;;;;1.67;0.60;;;;;;;-0.12;92.52;102989.16;5054030;28;20936;-68
2021/03/02 00:47:05;;;;;;;2.97;2.77;;;;;;;-0.10;93.46;102996.97;5053900;28;21060;-67
2021/03/02 00:49:31;;;;;;;0.40;0.30;;;;;;;0.12;92.87;102990.91;5053943;28;20818;-68
2021/03/02 00:51:57;;;;;;;0.40;0.30;;;;;;;0.18;92.49;102992.91;5053832;28;20462;-69
2021/03/02 00:54:23;;;;;;;0.87;0.70;;;;;;;-0.01;91.10;102985.28;5053914;28;20470;-68
2021/03/02 00:56:50;;;;;;;3.03;1.80;;;;;;;-0.21;92.25;102994.69;5053488;28;20462;-69
2021/03/02 00:59:16;;;;;;;3.73;2.23;;;;;;;-0.26;92.93;102989.88;5053782;28;20443;-68
2021/03/02 01:01:42;;;;;;;2.03;0.60;;;;;;;-0.14;92.45;102987.66;5053610;28;20454;-69
2021/03/02 01:04:08;;;;;;;1.23;1.13;;;;;;;-0.21;91.66;102997.34;5055054;28;20442;-67
2021/03/02 01:06:34;;;;;;;0.40;0.30;;;;;;;-0.13;92.05;102990.19;5053142;28;20490;-68
2021/03/02 01:09:00;;;;;;;0.40;0.30;;;;;;;-0.16;92.58;102990.50;5053585;28;20438;-68
2021/03/02 01:11:26;;;;;;;0.40;0.30;;;;;;;-0.12;92.37;102986.50;5053513;28;20830;-68
2021/03/02 01:13:52;;;;;;;1.03;0.93;;;;;;;-0.08;90.99;102985.16;5053509;28;20442;-68
2021/03/02 01:16:18;;;;;;;0.70;0.50;;;;;;;-0.17;91.46;102982.69;5053478;28;20442;-68
2021/03/02 01:18:44;;;;;;;1.17;1.00;;;;;;;-0.11;91.63;102980.16;5053363;28;20454;-68
2021/03/02 01:21:15;;;;;;;2.30;1.47;;;;;;;0.06;91.47;102977.47;5053338;28;20608;-68
2021/03/02 01:23:41;;;;;;;0.53;0.53;;;;;;;0.13;91.05;102973.91;5053354;28;20453;-67
2021/03/02 01:26:06;;;;;;;1.17;0.80;;;;;;;0.11;91.13;102970.59;5053207;28;20446;-67
2021/03/02 01:28:32;;;;;;;0.60;0.60;;;;;;;0.04;90.88;102964.28;5053284;28;20977;-66
2021/03/02 01:30:59;;;;;;;1.70;1.50;;;;;;;0.04;91.72;102966.97;5052883;28;20474;-67
2021/03/02 01:33:25;;;;;;;0.40;0.30;;;;;;;-0.06;93.53;102961.00;5053175;28;20438;-67
2021/03/02 01:35:51;;;;;;;1.77;0.83;;;;;;;-0.02;94.05;102959.66;5053295;28;20449;-67
2021/03/02 01:38:17;;;;;;;0.97;0.97;;;;;;;0.06;94.08;102964.97;5053173;28;20499;-66
2021/03/02 01:40:43;;;;;;;5.70;3.10;;;;;;;0.05;94.47;102962.50;5052967;28;20453;-67
2021/03/02 01:43:10;;;;;;;2.10;1.90;;;;;;;0.07;94.43;102961.28;5053101;28;20453;-67
2021/03/02 01:45:37;;;;;;;1.00;0.50;;;;;;;0.16;95.17;102954.94;5053048;28;20442;-67
2021/03/02 01:48:05;;;;;;;4.63;2.93;;;;;;;0.21;95.53;102959.75;5053272;28;20527;-67
2021/03/02 01:50:31;;;;;;;3.43;1.70;;;;;;;0.27;95.76;102955.53;5054325;28;20445;-67
2021/03/02 01:52:57;;;;;;;2.00;1.90;;;;;;;0.29;95.42;102962.38;5053245;28;20446;-67
2021/03/02 01:55:23;;;;;;;1.33;0.90;;;;;;;0.22;95.49;102964.91;5053041;28;20819;-67
2021/03/02 01:57:49;;;;;;;1.83;1.50;;;;;;;0.21;95.74;102963.22;5052578;28;20815;-66
2021/03/02 02:00:22;;;;;;;6.60;1.00;;;;;;;0.25;95.70;102958.38;5052936;28;20469;-68
2021/03/02 02:02:54;;;;;;;0.40;0.30;;;;;;;0.29;96.37;102957.03;5052561;28;20983;-67
2021/03/02 02:05:23;;;;;;;1.10;1.03;;;;;;;0.37;95.24;102950.84;5052850;28;20433;-67
2021/03/02 02:07:54;;;;;;;0.80;0.80;;;;;;;0.43;95.78;102953.63;5052749;28;20535;-67
2021/03/02 02:10:31;;;;;;;1.03;0.97;;;;;;;0.40;95.02;102958.47;5053005;28;20427;-67
2021/03/02 02:13:04;;;;;;;1.10;1.03;;;;;;;0.25;94.80;102958.38;5053821;28;20418;-68
2021/03/02 02:15:34;;;;;;;2.20;2.10;;;;;;;0.29;94.96;102953.56;5052559;28;20802;-67
2021/03/02 02:18:03;;;;;;;1.83;1.03;;;;;;;0.23;94.98;102955.91;5052770;28;20423;-67
2021/03/02 02:20:42;;;;;;;1.80;0.83;;;;;;;0.20;95.92;102956.25;5052505;28;20997;-67
2021/03/02 02:23:18;;;;;;;1.33;0.90;;;;;;;0.13;95.12;102962.44;5052792;28;20476;-68
2021/03/02 02:25:55;;;;;;;0.40;0.30;;;;;;;0.16;95.98;102949.59;5052729;28;20458;-68
2021/03/02 02:28:23;;;;;;;3.37;0.57;;;;;;;0.20;95.82;102953.59;5052711;28;20468;-67
2021/03/02 02:30:54;;;;;;;0.87;0.60;;;;;;;0.26;96.44;102952.03;5052450;28;20462;-68
2021/03/02 02:33:21;;;;;;;1.93;0.70;;;;;;;0.32;96.38;102946.03;5052715;28;20430;-67
2021/03/02 02:35:51;;;;;;;0.53;0.47;;;;;;;0.38;96.10;102958.66;5052670;28;20450;-67
2021/03/02 02:38:19;;;;;;;0.40;0.30;;;;;;;0.43;95.99;102953.63;5052590;28;20527;-67
2021/03/02 02:40:46;;;;;;;1.13;1.03;;;;;;;0.38;96.90;102947.16;5052471;28;20446;-67
2021/03/02 02:43:13;;;;;;;2.40;1.30;;;;;;;0.38;96.67;102953.31;5052213;28;20492;-67
2021/03/02 02:45:40;;;;;;;0.40;0.40;;;;;;;0.41;96.59;102947.66;5052155;28;20947;-67
2021/03/02 02:48:08;;;;;;;0.40;0.30;;;;;;;0.49;96.65;102958.28;5052395;28;20527;-67
2021/03/02 02:50:35;;;;;;;0.40;0.30;;;;;;;0.53;96.44;102945.41;5052453;28;20438;-67
2021/03/02 02:53:01;;;;;;;0.40;0.30;;;;;;;0.43;96.47;102945.63;5052451;28;20500;-67
2021/03/02 02:55:34;;;;;;;2.60;1.17;;;;;;;0.42;96.72;102948.47;5052144;28;20438;-67
2021/03/02 02:58:02;;;;;;;1.50;1.33;;;;;;;0.48;96.21;102958.44;5052449;28;20423;-66
2021/03/02 03:00:30;;;;;;;0.40;0.30;;;;;;;0.52;96.40;102941.09;5054222;28;20434;-66
2021/03/02 03:02:58;;;;;;;0.40;0.27;;;;;;;0.37;96.11;102950.84;5055824;28;20465;-67
2021/03/02 03:05:27;;;;;;;0.50;0.50;;;;;;;0.45;95.95;102958.81;5055897;28;20553;-67
2021/03/02 03:07:57;;;;;;;0.63;0.63;;;;;;;0.50;94.90;102956.44;5055447;28;20999;-67
2021/03/02 03:10:26;;;;;;;0.50;0.40;;;;;;;0.35;94.81;102956.34;5055857;28;20446;-67
2021/03/02 03:12:58;;;;;;;0.40;0.30;;;;;;;0.23;95.65;102958.56;5055406;28;20466;-67
2021/03/02 03:15:24;;;;;;;0.40;0.30;;;;;;;0.27;95.05;102950.22;5055537;28;20982;-67
2021/03/02 03:17:54;;;;;;;1.50;0.93;;;;;;;0.30;95.05;102948.03;5055657;28;20438;-67
2021/03/02 03:20:23;;;;;;;0.40;0.30;;;;;;;0.26;94.88;102954.72;5055619;28;20446;-67
2021/03/02 03:22:50;;;;;;;0.70;0.50;;;;;;;0.25;94.44;102953.06;5055381;28;20454;-67
2021/03/02 03:25:17;;;;;;;0.40;0.40;;;;;;;0.19;93.80;102953.75;5055533;28;20445;-68
2021/03/02 03:27:47;;;;;;;0.40;0.30;;;;;;;0.24;93.68;102951.41;5055353;28;20485;-66
2021/03/02 03:30:16;;;;;;;1.63;1.07;;;;;;;0.22;93.88;102954.25;5055225;28;20958;-67
2021/03/02 03:32:46;;;;;;;0.40;0.30;;;;;;;0.22;93.90;102954.25;5055360;28;20466;-67
2021/03/02 03:35:12;;;;;;;1.90;1.13;;;;;;;0.16;94.46;102951.44;5055359;28;20777;-67
2021/03/02 03:37:39;;;;;;;0.67;0.47;;;;;;;0.14;94.56;102956.94;5055394;28;20443;-67
2021/03/02 03:40:07;;;;;;;0.50;0.47;;;;;;;0.09;94.50;102969.97;5055441;28;20443;-67
2021/03/02 03:42:33;;;;;;;0.40;0.30;;;;;;;0.11;94.27;102962.63;5055084;28;20516;-67
2021/03/02 03:44:58;;;;;;;0.40;0.30;;;;;;;0.15;94.22;102961.28;5055235;28;20454;-67
2021/03/02 03:47:24;;;;;;;0.93;0.70;;;;;;;0.13;93.90;102960.59;5055084;28;20481;-67
2021/03/02 03:49:50;;;;;;;0.50;0.40;;;;;;;0.07;93.88;102958.63;5055066;28;20464;-67
2021/03/02 03:52:17;;;;;;;0.40;0.30;;;;;;;-0.09;93.64;102961.34;5054910;28;20496;-67
2021/03/02 03:54:47;;;;;;;0.40;0.30;;;;;;;-0.19;94.26;102952.72;5054933;28;20439;-67
2021/03/02 03:57:15;;;;;;;0.40;0.30;;;;;;;-0.29;94.93;102959.06;5054930;28;20446;-67
2021/03/02 03:59:41;;;;;;;0.67;0.50;;;;;;;-0.34;95.69;102965.91;5054857;28;20783;-68
2021/03/02 04:02:09;;;;;;;0.70;0.40;;;;;;;-0.35;96.56;102950.94;5054514;28;20849;-68
2021/03/02 04:04:37;;;;;;;0.40;0.30;;;;;;;-0.33;96.91;102965.75;5054812;28;20474;-67
2021/03/02 04:07:04;;;;;;;0.40;0.30;;;;;;;-0.39;96.77;102962.94;5054737;28;20489;-67
2021/03/02 04:09:31;;;;;;;0.40;0.40;;;;;;;-0.35;97.13;102959.75;5054702;28;20454;-67
2021/03/02 04:11:58;;;;;;;0.40;0.40;;;;;;;-0.25;97.23;102954.25;5054659;28;20524;-67
2021/03/02 04:14:24;;;;;;;0.40;0.30;;;;;;;-0.26;96.53;102949.94;5054363;28;20461;-67
2021/03/02 04:16:50;;;;;;;0.40;0.30;;;;;;;-0.27;96.22;102954.44;5055215;28;20580;-67
2021/03/02 04:19:16;;;;;;;0.40;0.30;;;;;;;-0.35;96.22;102951.78;5056581;28;20446;-67
2021/03/02 04:21:42;;;;;;;0.40;0.30;;;;;;;-0.32;95.57;102956.75;5054471;28;20914;-67
2021/03/02 04:24:09;;;;;;;0.40;0.30;;;;;;;-0.34;95.54;102957.94;5054488;28;20446;-66
2021/03/02 04:26:35;;;;;;;0.40;0.30;;;;;;;-0.37;95.97;102959.09;5054480;28;20446;-66
2021/03/02 04:29:01;;;;;;;0.67;0.67;;;;;;;-0.29;96.27;102960.91;5054154;28;20962;-66
2021/03/02 04:31:27;;;;;;;0.40;0.30;;;;;;;-0.27;95.94;102965.06;5053891;28;20529;-66
2021/03/02 04:33:53;;;;;;;0.97;0.60;;;;;;;-0.24;95.61;102963.06;5054245;28;20796;-66
2021/03/02 04:36:19;;;;;;;0.40;0.30;;;;;;;-0.24;95.63;102961.22;5054199;28;20943;-66
2021/03/02 04:38:45;;;;;;;0.40;0.30;;;;;;;-0.31;96.15;102957.56;5054132;28;20900;-66
2021/03/02 04:41:12;;;;;;;0.40;0.30;;;;;;;-0.25;95.70;102962.22;5054079;28;20820;-66
2021/03/02 04:43:38;;;;;;;0.40;0.30;;;;;;;-0.33;95.22;102965.75;5053994;28;20438;-67
2021/03/02 04:46:05;;;;;;;0.40;0.30;;;;;;;-0.40;95.58;102964.78;5054014;28;20485;-66
2021/03/02 04:48:31;;;;;;;5.20;1.57;;;;;;;-0.28;95.45;102960.72;5053602;28;21003;-66
2021/03/02 04:50:57;;;;;;;0.40;0.30;;;;;;;-0.24;95.32;102961.22;5053891;28;20469;-66
2021/03/02 04:53:23;;;;;;;0.50;0.50;;;;;;;-0.21;95.27;102965.41;5053868;28;20442;-66
2021/03/02 04:55:49;;;;;;;0.70;0.53;;;;;;;-0.24;94.79;102960.41;5053881;28;20442;-66
2021/03/02 04:58:15;;;;;;;0.40;0.30;;;;;;;-0.26;95.45;102961.41;5053818;28;20819;-67
2021/03/02 05:00:41;;;;;;;0.40;0.30;;;;;;;-0.32;95.98;102956.75;5053708;28;20978;-68
2021/03/02 05:03:09;;;;;;;0.70;0.50;;;;;;;-0.19;96.21;102958.03;5053427;28;20442;-67
2021/03/02 05:05:35;;;;;;;0.63;0.63;;;;;;;-0.24;96.01;102963.88;5053755;28;20484;-67
2021/03/02 05:08:01;;;;;;;0.40;0.30;;;;;;;-0.28;95.81;102951.91;5053541;28;20529;-66
2021/03/02 05:10:27;;;;;;;0.40;0.30;;;;;;;-0.30;95.98;102953.94;5053250;28;20446;-67
2021/03/02 05:12:53;;;;;;;0.40;0.30;;;;;;;-0.28;95.89;102951.91;5053450;28;20450;-67
2021/03/02 05:15:19;;;;;;;0.40;0.30;;;;;;;-0.28;95.48;102947.41;5053537;28;20442;-67
2021/03/02 05:17:45;;;;;;;0.50;0.40;;;;;;;-0.31;95.80;102958.44;5053478;28;20438;-66
2021/03/02 05:20:13;;;;;;;0.50;0.40;;;;;;;-0.35;96.23;102957.09;5053391;28;20492;-67
2021/03/02 05:22:39;;;;;;;1.57;0.63;;;;;;;-0.29;95.61;102955.59;5053015;28;20863;-66
2021/03/02 05:25:06;;;;;;;0.40;0.30;;;;;;;-0.31;95.90;102966.41;5053156;28;20927;-67
2021/03/02 05:27:32;;;;;;;0.40;0.40;;;;;;;-0.28;95.51;102958.06;5053231;28;20493;-66
2021/03/02 05:29:58;;;;;;;0.60;0.50;;;;;;;-0.43;95.66;102959.78;5053282;28;20442;-66
2021/03/02 05:32:24;;;;;;;0.40;0.30;;;;;;;-0.43;95.93;102957.13;5052895;28;21065;-66
2021/03/02 05:34:50;;;;;;;0.40;0.30;;;;;;;-0.37;95.86;102961.75;5053150;28;20466;-67
2021/03/02 05:37:16;;;;;;;0.40;0.30;;;;;;;-0.34;95.54;102961.41;5053010;28;20438;-66
2021/03/02 05:39:42;;;;;;;0.50;0.50;;;;;;;-0.35;95.56;102959.75;5053156;28;20556;-66
2021/03/02 05:42:09;;;;;;;0.40;0.40;;;;;;;-0.40;96.03;102969.22;5053053;28;20484;-66
2021/03/02 05:44:36;;;;;;;0.50;0.40;;;;;;;-0.34;95.55;102966.75;5053127;28;20451;-66
2021/03/02 05:47:03;;;;;;;0.40;0.30;;;;;;;-0.26;95.68;102966.72;5052923;28;20486;-66
2021/03/02 05:49:29;;;;;;;0.40;0.30;;;;;;;-0.30;95.39;102960.09;5053030;28;20488;-67
2021/03/02 05:51:55;;;;;;;0.40;0.40;;;;;;;-0.31;95.51;102957.56;5052650;28;20988;-65
2021/03/02 05:54:23;;;;;;;0.40;0.30;;;;;;;-0.31;95.40;102963.75;5052942;28;20530;-65
2021/03/02 05:56:50;;;;;;;0.40;0.37;;;;;;;-0.31;95.27;102962.91;5052688;28;20944;-65
2021/03/02 05:59:17;;;;;;;0.40;0.30;;;;;;;-0.33;96.04;102955.09;5052885;28;20446;-65
2021/03/02 06:01:43;;;;;;;0.40;0.30;;;;;;;-0.21;95.87;102962.72;5052828;28;20827;-65
2021/03/02 06:04:14;;;;;;;0.40;0.30;;;;;;;-0.29;96.23;102959.06;5052549;28;20450;-65
2021/03/02 06:06:40;;;;;;;0.40;0.30;;;;;;;-0.19;96.63;102963.38;5052763;28;20437;-65
2021/03/02 06:09:07;;;;;;;0.40;0.33;;;;;;;-0.20;96.87;102967.03;5052898;28;20807;-65
2021/03/02 06:11:35;;;;;;;0.47;0.40;;;;;;;-0.23;97.46;102970.88;5052702;28;20485;-65
2021/03/02 06:14:20;;;;;;;0.40;0.40;;;;;;;-0.14;97.89;102964.50;5052755;28;20442;-65
2021/03/02 06:16:46;;;;;;;0.40;0.30;;;;;;;-0.06;97.59;102969.00;5052867;28;20434;-66
2021/03/02 06:19:12;;;;;;;0.40;0.30;;;;;;;-0.01;97.62;102969.31;5052747;28;20438;-65
2021/03/02 06:21:39;;;;;;;0.40;0.30;;;;;;;0.01;97.87;102972.66;5052375;28;20458;-66
2021/03/02 06:24:06;;;;;;;0.40;0.30;;;;;;;0.12;97.25;102979.44;5052681;28;20442;-65
2021/03/02 06:26:32;;;;;;;0.40;0.30;;;;;;;0.06;96.35;102978.28;5052649;28;20454;-66
2021/03/02 06:29:10;;;;;;;0.40;0.30;;;;;;;0.06;96.09;102975.63;5052613;28;20482;-68
2021/03/02 06:31:39;;;;;;;0.60;0.60;;;;;;;0.07;96.99;102977.28;5052492;28;20473;-69
2021/03/02 06:34:13;;;;;;;0.40;0.30;;;;;;;0.14;96.99;102982.78;5052742;28;20444;-68
2021/03/02 06:36:41;;;;;;;0.40;0.30;;;;;;;0.12;96.43;102979.44;5056434;28;20781;-68
2021/03/02 06:39:25;;;;;;;0.40;0.30;;;;;;;-0.05;96.55;102984.78;5056631;28;20464;-70
2021/03/02 06:41:53;;;;;;;0.40;0.30;;;;;;;-0.08;96.92;102995.81;5058732;28;20472;-69
2021/03/02 06:44:20;;;;;;;0.40;0.30;;;;;;;0.04;96.93;102992.78;5057025;28;20496;-70
2021/03/02 06:46:46;;;;;;;0.40;0.30;;;;;;;0.14;96.89;102990.75;5074607;28;20438;-71
2021/03/02 06:49:12;;;;;;;1.13;1.00;;;;;;;0.12;96.79;102987.41;5061037;28;20438;-70
2021/03/02 06:51:40;;;;;;;1.23;0.60;;;;;;;0.12;96.92;102990.09;5056428;28;20465;-70
2021/03/02 06:54:07;;;;;;;0.40;0.30;;;;;;;0.16;96.55;102981.56;5056454;28;20441;-70
2021/03/02 06:56:34;;;;;;;0.40;0.30;;;;;;;0.17;96.61;102988.56;5056448;28;20544;-71
2021/03/02 06:59:13;;;;;;;0.40;0.30;;;;;;;0.20;97.41;102982.06;5056336;28;20442;-71
2021/03/02 07:01:41;;;;;;;0.40;0.30;;;;;;;0.26;97.30;102978.69;5056086;28;20859;-70
2021/03/02 07:04:15;;;;;;;0.40;0.30;;;;;;;0.35;97.13;102984.81;5057686;28;20880;-70
2021/03/02 07:06:43;;;;;;;0.40;0.40;;;;;;;0.43;97.45;102987.47;5056215;28;20423;-70
2021/03/02 07:09:10;;;;;;;0.50;0.50;;;;;;;0.31;96.15;102983.50;5056013;28;20438;-70
2021/03/02 07:11:37;;;;;;;0.40;0.30;;;;;;;0.20;95.89;102982.91;5055909;28;20466;-67
2021/03/02 07:14:05;;;;;;;0.40;0.40;;;;;;;0.10;96.20;102984.94;5055602;28;20446;-67
2021/03/02 07:16:33;;;;;;;0.40;0.30;;;;;;;0.23;97.36;102985.22;5055838;28;20442;-65
2021/03/02 07:19:02;;;;;;;0.40;0.30;;;;;;;0.32;97.34;102982.53;5055462;28;20434;-65
2021/03/02 07:21:34;;;;;;;0.40;0.30;;;;;;;0.24;96.92;102978.88;5055396;28;20991;-65
2021/03/02 07:24:01;;;;;;;0.40;0.30;;;;;;;0.22;96.57;102988.03;5055785;28;20480;-65
2021/03/02 07:26:28;;;;;;;0.70;0.70;;;;;;;0.14;96.80;102991.59;5055324;28;20960;-66
2021/03/02 07:28:54;;;;;;;3.33;0.53;;;;;;;0.15;97.03;102990.56;5055276;28;20492;-67
2021/03/02 07:31:20;;;;;;;0.50;0.50;;;;;;;0.20;97.27;102982.91;5055245;28;20494;-66
2021/03/02 07:33:47;;;;;;;0.40;0.30;;;;;;;0.30;98.35;102981.84;5055618;28;20824;-69
2021/03/02 07:36:14;;;;;;;0.40;0.30;;;;;;;0.39;98.18;102989.63;5055408;28;20438;-66
2021/03/02 07:38:40;;;;;;;0.40;0.30;;;;;;;0.52;97.75;102985.59;5055468;28;20442;-66
2021/03/02 07:41:07;;;;;;;0.87;0.40;;;;;;;0.52;97.45;102991.75;5055424;28;20504;-67
2021/03/02 07:43:34;;;;;;;0.40;0.40;;;;;;;0.64;97.36;102994.84;5055418;28;20446;-67
2021/03/02 07:46:02;;;;;;;4.10;1.03;;;;;;;0.63;96.61;102991.38;5054663;28;20969;-67
2021/03/02 07:48:30;;;;;;;1.73;0.57;;;;;;;0.61;96.48;102996.03;5055366;28;20493;-67
2021/03/02 07:51:17;;;;;;;0.50;0.40;;;;;;;0.64;96.67;102997.53;5055161;28;20469;-67
2021/03/02 07:53:43;;;;;;;0.60;0.60;;;;;;;0.80;96.61;103001.91;5054909;28;20936;-67
2021/03/02 07:56:23;;;;;;;0.50;0.40;;;;;;;0.93;96.73;103003.03;5055115;28;20796;-67
2021/03/02 07:59:16;;;;;;;0.53;0.50;;;;;;;1.06;96.69;102994.41;5055093;28;20422;-66
2021/03/02 08:01:44;;;;;;;0.40;0.40;;;;;;;1.17;96.23;102996.66;5054942;28;20466;-66
2021/03/02 08:04:27;;;;;;;0.50;0.43;;;;;;;1.33;95.33;103000.22;5054789;28;20445;-66
2021/03/02 08:07:14;;;;;;;0.70;0.50;;;;;;;1.45;94.81;103006.78;5055012;28;20446;-66
2021/03/02 08:09:40;;;;;;;1.13;0.60;;;;;;;1.49;94.27;103008.91;5054521;28;21068;-67
2021/03/02 08:12:35;;;;;;;0.40;0.30;;;;;;;1.53;94.58;103006.72;5054828;28;20466;-66
2021/03/02 08:15:22;;;;;;;2.93;0.60;;;;;;;1.62;93.84;103008.31;5054662;28;20529;-67
2021/03/02 08:17:48;;;;;;;0.40;0.40;;;;;;;1.60;93.47;103009.50;5054473;28;20446;-66
2021/03/02 08:20:15;;;;;;;1.33;1.23;;;;;;;1.62;93.90;103010.97;5054496;28;21005;-64
2021/03/02 08:22:59;;;;;;;1.23;0.83;;;;;;;1.69;93.66;103008.41;5054584;28;20541;-67
2021/03/02 08:25:35;;;;;;;0.63;0.50;;;;;;;1.72;92.71;103021.41;5054778;28;20434;-67
2021/03/02 08:28:04;;;;;;;0.73;0.47;;;;;;;1.77;92.11;103014.50;5054538;28;20477;-67
2021/03/02 08:30:33;;;;;;;3.70;0.90;;;;;;;1.87;92.58;103014.25;5054088;28;20935;-66
2021/03/02 08:33:00;;;;;;;0.40;0.40;;;;;;;1.89;92.72;103006.84;5054469;28;20446;-66
2021/03/02 08:35:31;;;;;;;0.40;0.30;;;;;;;1.95;92.19;103005.31;5054399;28;20456;-66
2021/03/02 08:38:00;;;;;;;2.00;1.07;;;;;;;2.02;92.19;103009.72;5054461;28;20446;-66
2021/03/02 08:40:49;;;;;;;1.80;1.70;;;;;;;2.09;92.18;103017.84;5053611;28;20534;-67
2021/03/02 08:43:18;;;;;;;0.87;0.50;;;;;;;2.11;92.33;103012.31;5054287;28;20422;-66
2021/03/02 08:45:51;;;;;;;3.53;3.23;;;;;;;2.05;92.97;103021.09;5054340;28;20521;-67
2021/03/02 08:48:20;;;;;;;0.40;0.30;;;;;;;2.19;92.87;103023.75;5054172;28;20481;-66
2021/03/02 08:50:47;;;;;;;0.40;0.30;;;;;;;2.32;92.44;103020.44;5053667;28;20442;-68
2021/03/02 08:53:35;;;;;;;0.40;0.30;;;;;;;2.33;91.97;103021.25;5054054;28;20805;-68
2021/03/02 08:56:02;;;;;;;0.40;0.30;;;;;;;2.26;91.59;103016.66;5056019;28;20450;-68
2021/03/02 08:58:30;;;;;;;0.40;0.30;;;;;;;2.27;91.15;103012.97;5053405;28;20442;-68
2021/03/02 09:01:14;;;;;;;0.40;0.30;;;;;;;2.26;92.18;103022.00;5053571;28;21040;-68
2021/03/02 09:03:43;;;;;;;0.93;0.63;;;;;;;2.42;92.42;103017.47;5053870;28;20435;-68
2021/03/02 09:06:15;;;;;;;0.50;0.50;;;;;;;2.47;91.92;103025.75;5053574;28;20441;-69
2021/03/02 09:08:53;;;;;;;0.50;0.50;;;;;;;2.60;91.46;103027.75;5053814;28;20513;-69
2021/03/02 09:11:23;;;;;;;0.60;0.40;;;;;;;2.64;91.12;103037.91;5053749;28;20470;-68
2021/03/02 09:13:50;;;;;;;0.70;0.70;;;;;;;2.67;91.16;103032.19;5055789;28;20480;-69
2021/03/02 09:16:29;;;;;;;0.40;0.30;;;;;;;2.84;91.21;103034.66;5057110;28;20821;-68
2021/03/02 09:19:05;;;;;;;0.70;0.67;;;;;;;2.82;91.01;103040.16;5053761;28;20427;-68
2021/03/02 09:21:32;;;;;;;0.40;0.30;;;;;;;2.98;91.01;103036.44;5053497;28;20465;-67
2021/03/02 09:24:00;;;;;;;1.63;0.70;;;;;;;3.00;91.06;103045.94;5053550;28;20457;-68
2021/03/02 09:26:27;;;;;;;2.10;1.87;;;;;;;3.03;90.85;103048.22;5053467;28;20442;-69
2021/03/02 09:28:55;;;;;;;0.83;0.40;;;;;;;3.09;90.68;103049.31;5053410;28;20482;-68
2021/03/02 09:31:21;;;;;;;0.50;0.40;;;;;;;3.07;90.26;103043.34;5053124;28;20474;-68
2021/03/02 09:33:49;;;;;;;0.40;0.30;;;;;;;3.22;89.96;103038.75;5053077;28;20943;-69
2021/03/02 09:36:15;;;;;;;0.70;0.60;;;;;;;3.30;89.29;103040.47;5053457;28;20454;-68
2021/03/02 09:38:41;;;;;;;6.10;1.53;;;;;;;3.43;89.39;103032.56;5053207;28;20950;-68
2021/03/02 09:41:08;;;;;;;5.50;1.60;;;;;;;3.51;88.83;103039.63;5053350;28;20484;-69
2021/03/02 09:43:36;;;;;;;10.63;1.43;;;;;;;3.45;88.81;103035.03;5053305;28;20451;-66
2021/03/02 09:46:04;;;;;;;0.40;0.30;;;;;;;3.24;88.89;103026.00;5053312;28;20442;-66
2021/03/02 09:48:43;;;;;;;2.30;2.20;;;;;;;3.17;90.44;103029.63;5052805;28;21007;-69
2021/03/02 09:51:30;;;;;;;0.40;0.30;;;;;;;3.38;90.17;103034.16;5053198;28;20458;-69
2021/03/02 09:54:10;;;;;;;0.40;0.30;;;;;;;3.43;89.70;103034.41;5053221;28;20791;-70
2021/03/02 09:56:37;;;;;;;0.70;0.47;;;;;;;3.48;90.42;103035.47;5053330;28;20434;-68
2021/03/02 09:59:03;;;;;;;0.50;0.40;;;;;;;3.63;89.68;103040.78;5053177;28;20465;-69
2021/03/02 10:01:29;;;;;;;0.70;0.70;;;;;;;3.60;89.99;103026.94;5052930;28;20986;-69
2021/03/02 10:03:55;;;;;;;3.70;1.00;;;;;;;3.77;90.09;103029.13;5053086;28;20477;-69
2021/03/02 10:06:25;;;;;;;0.40;0.30;;;;;;;3.90;89.30;103027.56;5052718;28;20520;-70
2021/03/02 10:08:51;;;;;;;3.13;0.70;;;;;;;3.90;89.29;103022.22;5054082;28;20522;-67
2021/03/02 10:11:21;;;;;;;1.60;1.50;;;;;;;3.82;88.58;103020.50;5057080;28;20469;-68
2021/03/02 10:13:50;;;;;;;3.13;2.73;;;;;;;3.93;88.83;103027.16;5057213;28;20448;-69
2021/03/02 10:16:24;;;;;;;1.37;0.87;;;;;;;3.94;88.83;103026.13;5057091;28;20438;-69
2021/03/02 10:18:53;;;;;;;0.70;0.60;;;;;;;3.99;88.71;103029.91;5056781;28;20524;-69
2021/03/02 10:21:20;;;;;;;1.17;1.03;;;;;;;3.98;88.91;103028.22;5056898;28;20458;-70
2021/03/02 10:23:47;;;;;;;0.50;0.47;;;;;;;4.01;88.87;103030.53;5057077;28;20516;-69
2021/03/02 10:26:20;;;;;;;0.40;0.30;;;;;;;4.15;88.78;103031.44;5056541;28;20825;-70
2021/03/02 10:28:46;;;;;;;0.40;0.40;;;;;;;4.28;89.03;103025.31;5056794;28;20461;-68
2021/03/02 10:31:13;;;;;;;12.97;3.03;;;;;;;4.47;88.81;103023.75;5056469;28;21003;-70
2021/03/02 10:33:39;;;;;;;0.57;0.50;;;;;;;4.53;88.70;103017.59;5056892;28;20446;-74
2021/03/02 10:36:16;;;;;;;0.50;0.40;;;;;;;4.46;87.47;103022.91;5056817;28;20500;-68
2021/03/02 10:38:42;;;;;;;0.43;0.30;;;;;;;4.54;87.14;103022.75;5056678;28;20476;-67
2021/03/02 10:41:08;;;;;;;0.80;0.60;;;;;;;4.66;87.15;103023.00;5056535;28;20489;-66
2021/03/02 10:43:34;;;;;;;1.63;1.07;;;;;;;4.86;87.50;103024.94;5056235;28;20457;-68
2021/03/02 10:46:00;;;;;;;0.70;0.50;;;;;;;4.99;86.19;103028.47;5056222;28;20446;-65
2021/03/02 10:48:27;;;;;;;1.37;1.00;;;;;;;4.96;87.18;103028.91;5056344;28;20482;-67
2021/03/02 10:50:53;;;;;;;15.73;1.13;;;;;;;5.12;87.33;103030.34;5056358;28;20445;-66
2021/03/02 10:53:19;;;;;;;3.97;2.33;;;;;;;5.30;86.92;103019.84;5056107;28;20478;-67
2021/03/02 10:55:44;;;;;;;0.60;0.57;;;;;;;5.42;86.04;103027.31;5056411;28;20446;-66
2021/03/02 10:58:10;;;;;;;1.73;1.50;;;;;;;5.64;85.19;103036.81;5056345;28;20462;-67
2021/03/02 11:00:36;;;;;;;0.97;0.80;;;;;;;5.87;84.61;103030.19;5056172;28;20524;-66
2021/03/02 11:03:03;;;;;;;0.73;0.60;;;;;;;6.03;83.70;103029.78;5056245;28;20935;-69
2021/03/02 11:05:30;;;;;;;1.77;1.67;;;;;;;6.01;83.13;103027.28;5056215;28;20454;-68
2021/03/02 11:07:55;;;;;;;2.10;0.87;;;;;;;5.95;83.56;103027.31;5056216;28;20481;-68
2021/03/02 11:10:21;;;;;;;3.77;1.87;;;;;;;5.90;83.38;103022.53;5062811;28;20500;-65
2021/03/02 11:12:47;;;;;;;6.60;1.20;;;;;;;5.73;83.91;103024.81;5056161;28;20466;-66
2021/03/02 11:15:14;;;;;;;0.40;0.30;;;;;;;5.87;84.13;103028.31;5056035;28;20453;-66
2021/03/02 11:17:40;;;;;;;2.80;0.90;;;;;;;5.93;84.07;103024.00;5055644;28;20438;-66
2021/03/02 11:20:07;;;;;;;2.07;1.50;;;;;;;5.82;84.42;103023.56;5055037;28;20952;-67
2021/03/02 11:22:34;;;;;;;1.90;1.13;;;;;;;5.81;84.73;103011.16;5055631;28;20572;-66
2021/03/02 11:24:59;;;;;;;5.87;3.03;;;;;;;5.74;85.22;103013.00;5055776;28;20450;-68
2021/03/02 11:27:26;;;;;;;0.70;0.70;;;;;;;6.01;84.49;103018.38;5055575;28;20533;-66
2021/03/02 11:29:51;;;;;;;2.30;1.07;;;;;;;6.26;85.27;103011.28;5055716;28;20442;-67
2021/03/02 11:32:17;;;;;;;1.00;0.67;;;;;;;6.58;83.82;103009.50;5055220;28;20470;-68
2021/03/02 11:34:43;;;;;;;17.37;2.67;;;;;;;6.80;81.91;103010.00;5055701;28;20446;-67
2021/03/02 11:37:10;;;;;;;5.80;2.53;;;;;;;7.50;81.86;103009.13;5055600;28;20453;-67